Hockley, Texas
Current Conditions -  °F | °C
As of 7:35 AM on Sunday 28 Dec 2014 (Local Time) from KTME Reporting Station
Moderate Rain Moderate Rain  
Wind Chill: 30°   Ceiling: 3900
Heat Index: 37°   Visibility: 3mi
Dew Point: 37°   Wind: 12mph
Humidity: 100%   Direction: 20°NNE
Pressure: 30.2"   Gusts: 16mph
Location:  30.03°N, 95.84°W
Report Text: KTME 281335Z AUTO 02010G14KT 3SM RA SCT011 BKN039 BKN060 03/03 A3020 RMK AO2
Loading
Personal Weather Stations






























Interactive Weather Map New forecast layout! Learn more

10-Day Weather Forecast

Advertisements
Track Severe Weather on mobile